createdAt,value
2019-02-24T00:00:01.714Z,82.46
2019-02-24T00:01:01.770Z,82.88
2019-02-24T00:02:01.679Z,82.88
2019-02-24T00:03:01.694Z,82.60
2019-02-24T00:04:01.682Z,82.39
2019-02-24T00:05:01.667Z,82.92
2019-02-24T00:06:01.704Z,82.81
2019-02-24T00:07:01.633Z,82.71
2019-02-24T00:08:01.643Z,82.50
2019-02-24T00:09:01.626Z,82.81
2019-02-24T00:10:01.595Z,82.92
2019-02-24T00:11:01.588Z,83.34
2019-02-24T00:12:01.614Z,83.54
2019-02-24T00:13:01.579Z,83.34
2019-02-24T00:14:01.599Z,83.23
2019-02-24T00:15:01.610Z,83.23
2019-02-24T00:16:01.530Z,83.13
2019-02-24T00:17:01.576Z,83.23
2019-02-24T00:18:01.510Z,83.02
2019-02-24T00:19:01.533Z,83.13
2019-02-24T00:20:01.497Z,83.86
2019-02-24T00:21:01.528Z,83.02
2019-02-24T00:22:01.465Z,81.55
2019-02-24T00:23:01.553Z,82.22
2019-02-24T00:24:01.459Z,82.64
2019-02-24T00:25:01.485Z,82.95
2019-02-24T00:26:01.425Z,82.81
2019-02-24T00:27:01.426Z,82.64
2019-02-24T00:28:07.106Z,82.75
2019-02-24T00:29:02.437Z,83.06
2019-02-24T00:30:01.372Z,84.22
2019-02-24T00:31:01.362Z,83.59
2019-02-24T00:32:01.349Z,83.59
2019-02-24T00:33:01.432Z,83.59
2019-02-24T00:34:01.344Z,84.01
2019-02-24T00:35:01.377Z,84.32
2019-02-24T00:36:01.313Z,84.01
2019-02-24T00:37:02.334Z,83.59
2019-02-24T00:38:01.284Z,83.69
2019-02-24T00:39:02.305Z,83.69
2019-02-24T00:40:01.283Z,83.59
2019-02-24T00:41:01.275Z,83.59
2019-02-24T00:42:01.245Z,83.80
2019-02-24T00:43:01.317Z,83.80
2019-02-24T00:44:01.216Z,83.69
2019-02-24T00:45:01.306Z,83.59
2019-02-24T00:46:01.199Z,83.69
2019-02-24T00:47:01.189Z,83.06
2019-02-24T00:48:01.250Z,83.17
2019-02-24T00:49:01.160Z,83.69
2019-02-24T00:50:01.239Z,83.80
2019-02-24T00:51:01.141Z,84.01
2019-02-24T00:52:01.133Z,84.95
2019-02-24T00:53:01.200Z,85.48
2019-02-24T00:54:01.104Z,84.84
2019-02-24T00:55:01.176Z,85.16
2019-02-24T00:56:01.091Z,83.80
2019-02-24T00:57:01.079Z,83.06
2019-02-24T00:58:01.066Z,83.37
2019-02-24T00:59:01.101Z,83.52
2019-02-24T01:00:01.058Z,83.31
2019-02-24T01:01:01.139Z,83.83
2019-02-24T01:02:01.019Z,83.41
2019-02-24T01:03:01.003Z,83.94
2019-02-24T01:04:01.040Z,83.62
2019-02-24T01:05:00.994Z,83.90
2019-02-24T01:06:01.071Z,84.25
2019-02-24T01:07:00.952Z,84.25
2019-02-24T01:08:00.943Z,84.47
2019-02-24T01:09:00.976Z,84.22
2019-02-24T01:10:00.945Z,85.31
2019-02-24T01:11:01.013Z,85.27
2019-02-24T01:12:00.904Z,84.78
2019-02-24T01:13:00.897Z,84.78
2019-02-24T01:14:00.877Z,84.57
2019-02-24T01:15:05.051Z,85.41
2019-02-24T01:16:00.859Z,83.59
2019-02-24T01:17:00.923Z,82.68
2019-02-24T01:18:00.841Z,82.99
2019-02-24T01:19:07.520Z,83.20
2019-02-24T01:20:00.833Z,82.68
2019-02-24T01:21:01.820Z,82.68
2019-02-24T01:22:00.792Z,82.53
2019-02-24T01:23:00.841Z,82.99
2019-02-24T01:24:00.777Z,82.68
2019-02-24T01:25:00.824Z,82.68
2019-02-24T01:26:00.753Z,83.10
2019-02-24T01:27:00.818Z,83.10
2019-02-24T01:28:00.729Z,83.10
2019-02-24T01:29:00.723Z,83.31
2019-02-24T01:30:00.726Z,84.05
2019-02-24T01:31:00.778Z,83.62
2019-02-24T01:32:00.696Z,83.10
2019-02-24T01:33:01.733Z,83.73
2019-02-24T01:34:00.673Z,83.37
2019-02-24T01:35:00.697Z,83.62
2019-02-24T01:36:00.640Z,84.15
2019-02-24T01:37:00.681Z,84.47
2019-02-24T01:38:00.626Z,84.89
2019-02-24T01:39:00.612Z,83.90
2019-02-24T01:40:00.610Z,83.83
2019-02-24T01:41:01.673Z,83.69
2019-02-24T01:42:00.578Z,83.73
2019-02-24T01:43:00.588Z,84.15
2019-02-24T01:44:00.544Z,84.47
2019-02-24T01:45:00.564Z,84.32
2019-02-24T01:46:00.528Z,84.36
2019-02-24T01:47:01.596Z,83.83
2019-02-24T01:48:00.498Z,83.52
2019-02-24T01:49:01.522Z,83.73
2019-02-24T01:50:01.531Z,83.83
2019-02-24T01:51:00.471Z,83.94
2019-02-24T01:52:00.499Z,83.83
2019-02-24T01:53:00.452Z,83.83
2019-02-24T01:54:00.555Z,83.73
2019-02-24T01:55:00.440Z,83.94
2019-02-24T01:56:00.471Z,83.73
2019-02-24T01:57:00.413Z,83.83
2019-02-24T01:58:00.513Z,83.62
2019-02-24T01:59:00.384Z,83.87
2019-02-24T02:00:00.387Z,83.62
2019-02-24T02:01:00.356Z,83.94
2019-02-24T02:02:07.028Z,84.57
2019-02-24T02:03:00.336Z,84.15
2019-02-24T02:04:00.414Z,83.83
2019-02-24T02:05:00.328Z,83.62
2019-02-24T02:06:00.348Z,83.62
2019-02-24T02:07:00.300Z,83.83
2019-02-24T02:08:01.313Z,84.05
2019-02-24T02:09:00.270Z,83.94
2019-02-24T02:10:00.380Z,83.94
2019-02-24T02:11:00.257Z,83.73
2019-02-24T02:12:00.253Z,83.83
2019-02-24T02:13:00.247Z,83.73
2019-02-24T02:14:00.299Z,83.31
2019-02-24T02:15:00.314Z,83.52
2019-02-24T02:16:00.200Z,83.73
2019-02-24T02:17:00.187Z,84.47
2019-02-24T02:18:00.266Z,84.47
2019-02-24T02:19:00.158Z,83.62
2019-02-24T02:20:00.317Z,83.52
2019-02-24T02:21:00.161Z,82.68
2019-02-24T02:22:00.239Z,82.78
2019-02-24T02:23:00.108Z,82.68
2019-02-24T02:24:00.170Z,82.15
2019-02-24T02:25:00.272Z,82.36
2019-02-24T02:26:00.108Z,82.68
2019-02-24T02:27:00.080Z,82.36
2019-02-24T02:28:01.165Z,82.78
2019-02-24T02:29:00.041Z,82.99
2019-02-24T02:30:00.357Z,82.78
2019-02-24T02:31:00.029Z,82.68
2019-02-24T02:32:00.026Z,83.41
2019-02-24T02:33:00.088Z,84.25
2019-02-24T02:33:59.998Z,83.52
2019-02-24T02:35:00.293Z,84.47
2019-02-24T02:35:59.984Z,84.78
2019-02-24T02:36:59.958Z,84.47
2019-02-24T02:37:59.963Z,84.25
2019-02-24T02:38:59.990Z,84.36
2019-02-24T02:39:59.951Z,84.05
2019-02-24T02:41:00.029Z,83.62
2019-02-24T02:42:00.009Z,83.73
2019-02-24T02:42:59.906Z,82.40
2019-02-24T02:43:59.922Z,81.98
2019-02-24T02:44:59.934Z,82.08
2019-02-24T02:45:59.970Z,81.62
2019-02-24T02:46:59.854Z,81.77
2019-02-24T02:48:01.951Z,81.56
2019-02-24T02:48:59.836Z,81.52
2019-02-24T02:50:00.858Z,82.19
2019-02-24T02:50:59.827Z,82.71
2019-02-24T02:51:59.869Z,82.92
2019-02-24T02:52:59.792Z,82.61
2019-02-24T02:53:59.828Z,83.14
2019-02-24T02:54:59.764Z,82.46
2019-02-24T02:55:59.781Z,82.08
2019-02-24T02:56:59.744Z,82.15
2019-02-24T02:57:59.739Z,82.50
2019-02-24T02:58:59.723Z,82.71
2019-02-24T03:00:00.732Z,82.89
2019-02-24T03:00:59.713Z,82.15
2019-02-24T03:01:59.773Z,81.20
2019-02-24T03:02:59.736Z,81.52
2019-02-24T03:03:59.688Z,81.13
2019-02-24T03:04:59.771Z,81.13
2019-02-24T03:05:59.677Z,81.10
2019-02-24T03:07:00.725Z,81.10
2019-02-24T03:07:59.638Z,81.52
2019-02-24T03:08:59.665Z,81.41
2019-02-24T03:09:59.590Z,81.94
2019-02-24T03:10:59.715Z,82.04
2019-02-24T03:11:59.590Z,82.57
2019-02-24T03:12:59.610Z,82.36
2019-02-24T03:13:59.551Z,82.71
2019-02-24T03:14:59.633Z,82.57
2019-02-24T03:15:59.554Z,82.04
2019-02-24T03:16:59.574Z,81.62
2019-02-24T03:17:59.516Z,81.45
2019-02-24T03:18:59.508Z,82.04
2019-02-24T03:19:59.575Z,82.19
2019-02-24T03:20:59.508Z,81.98
2019-02-24T03:21:59.511Z,82.19
2019-02-24T03:22:59.465Z,82.71
2019-02-24T03:23:59.452Z,82.92
2019-02-24T03:24:59.441Z,82.61
2019-02-24T03:25:59.530Z,82.71
2019-02-24T03:26:59.424Z,82.08
2019-02-24T03:27:59.531Z,82.29
2019-02-24T03:29:04.012Z,82.29
2019-02-24T03:30:00.476Z,82.50
2019-02-24T03:30:59.387Z,82.61
2019-02-24T03:32:06.072Z,82.65
2019-02-24T03:32:59.343Z,83.39
2019-02-24T03:34:00.450Z,83.87
2019-02-24T03:34:59.328Z,84.33
2019-02-24T03:35:59.405Z,83.81
2019-02-24T03:36:59.309Z,83.59
2019-02-24T03:38:00.320Z,84.23
2019-02-24T03:38:59.280Z,84.44
2019-02-24T03:39:59.275Z,84.33
2019-02-24T03:40:59.337Z,83.70
2019-02-24T03:41:59.249Z,83.81
2019-02-24T03:42:59.348Z,83.91
2019-02-24T03:43:59.222Z,83.81
2019-02-24T03:44:59.221Z,83.59
2019-02-24T03:45:59.221Z,84.01
2019-02-24T03:46:59.305Z,84.01
2019-02-24T03:47:59.205Z,84.12
2019-02-24T03:48:59.245Z,83.59
2019-02-24T03:49:59.163Z,82.86
2019-02-24T03:50:59.232Z,82.97
2019-02-24T03:51:59.152Z,83.81
2019-02-24T03:52:59.219Z,82.86
2019-02-24T03:53:59.124Z,83.07
2019-02-24T03:54:59.148Z,82.86
2019-02-24T03:55:59.114Z,82.86
2019-02-24T03:56:59.190Z,82.75
2019-02-24T03:57:59.079Z,82.33
2019-02-24T03:58:59.127Z,82.23
2019-02-24T03:59:59.066Z,82.12
2019-02-24T04:00:59.064Z,82.33
2019-02-24T04:01:59.036Z,83.07
2019-02-24T04:02:59.092Z,82.86
2019-02-24T04:03:59.022Z,83.28
2019-02-24T04:04:59.025Z,82.33
2019-02-24T04:05:59.043Z,82.23
2019-02-24T04:06:58.989Z,82.65
2019-02-24T04:07:59.036Z,82.43
2019-02-24T04:08:58.950Z,82.26
2019-02-24T04:09:58.965Z,82.33
2019-02-24T04:10:58.959Z,82.12
2019-02-24T04:11:58.992Z,81.21
2019-02-24T04:12:58.909Z,81.07
2019-02-24T04:13:58.949Z,80.79
2019-02-24T04:14:58.892Z,80.75
2019-02-24T04:15:58.922Z,81.17
2019-02-24T04:16:58.873Z,80.86
2019-02-24T04:17:58.917Z,80.75
2019-02-24T04:18:58.845Z,81.59
2019-02-24T04:19:58.944Z,82.54
2019-02-24T04:20:58.843Z,81.91
2019-02-24T04:21:58.814Z,82.05
2019-02-24T04:22:58.808Z,82.47
2019-02-24T04:23:58.826Z,82.37
2019-02-24T04:24:58.777Z,82.26
2019-02-24T04:25:59.826Z,82.16
2019-02-24T04:26:58.839Z,82.26
2019-02-24T04:27:58.756Z,82.47
2019-02-24T04:28:58.778Z,82.16
2019-02-24T04:29:58.740Z,82.58
2019-02-24T04:30:58.850Z,82.68
2019-02-24T04:31:58.709Z,82.58
2019-02-24T04:32:58.739Z,82.68
2019-02-24T04:33:58.682Z,82.68
2019-02-24T04:34:58.762Z,82.58
2019-02-24T04:35:58.684Z,82.79
2019-02-24T04:36:58.724Z,82.79
2019-02-24T04:37:58.650Z,82.89
2019-02-24T04:38:58.751Z,83.31
2019-02-24T04:39:58.631Z,83.00
2019-02-24T04:40:58.730Z,82.58
2019-02-24T04:41:58.592Z,82.58
2019-02-24T04:42:58.590Z,82.26
2019-02-24T04:43:58.569Z,82.58
2019-02-24T04:44:58.644Z,82.79
2019-02-24T04:45:58.563Z,82.26
2019-02-24T04:46:58.583Z,81.63
2019-02-24T04:47:58.654Z,82.16
2019-02-24T04:48:58.530Z,82.37
2019-02-24T04:49:59.612Z,83.00
2019-02-24T04:50:58.527Z,82.58
2019-02-24T04:51:58.524Z,82.58
2019-02-24T04:52:58.474Z,82.62
2019-02-24T04:53:58.556Z,82.47
2019-02-24T04:54:58.466Z,82.26
2019-02-24T04:55:58.486Z,82.16
2019-02-24T04:56:58.445Z,81.84
2019-02-24T04:57:58.537Z,82.05
2019-02-24T04:58:58.423Z,82.58
2019-02-24T04:59:58.468Z,82.47
2019-02-24T05:00:58.387Z,82.16
2019-02-24T05:01:58.440Z,82.58
2019-02-24T05:02:58.371Z,82.62
2019-02-24T05:03:58.368Z,83.25
2019-02-24T05:04:58.352Z,82.72
2019-02-24T05:05:58.372Z,83.04
2019-02-24T05:06:58.349Z,83.04
2019-02-24T05:07:59.329Z,83.14
2019-02-24T05:08:58.382Z,82.82
2019-02-24T05:09:58.294Z,82.93
2019-02-24T05:10:58.309Z,83.14
2019-02-24T05:11:58.288Z,82.40
2019-02-24T05:12:58.355Z,81.84
2019-02-24T05:13:58.265Z,82.05
2019-02-24T05:14:58.278Z,81.88
2019-02-24T05:15:58.228Z,81.35
2019-02-24T05:16:58.268Z,81.35
2019-02-24T05:17:58.214Z,80.40
2019-02-24T05:18:58.255Z,80.08
2019-02-24T05:19:58.190Z,80.36
2019-02-24T05:20:58.190Z,80.40
2019-02-24T05:21:58.176Z,80.58
2019-02-24T05:22:58.222Z,80.82
2019-02-24T05:23:58.134Z,81.10
2019-02-24T05:24:58.137Z,81.52
2019-02-24T05:25:58.228Z,81.32
2019-02-24T05:26:58.115Z,81.42
2019-02-24T05:27:59.188Z,81.24
2019-02-24T05:28:58.087Z,80.79
2019-02-24T05:29:58.067Z,81.63
2019-02-24T05:30:58.060Z,81.63
2019-02-24T05:31:58.084Z,81.42
2019-02-24T05:32:58.059Z,80.90
2019-02-24T05:33:58.073Z,80.79
2019-02-24T05:34:58.030Z,80.16
2019-02-24T05:35:58.121Z,79.63
2019-02-24T05:36:58.022Z,80.36
2019-02-24T05:37:58.041Z,80.72
2019-02-24T05:38:57.976Z,81.32
2019-02-24T05:39:57.972Z,81.14
2019-02-24T05:40:58.047Z,81.46
2019-02-24T05:41:57.967Z,81.14
2019-02-24T05:42:59.006Z,81.67
2019-02-24T05:43:57.952Z,81.56
2019-02-24T05:44:58.016Z,80.93
2019-02-24T05:45:57.994Z,81.35
2019-02-24T05:46:57.907Z,81.67
2019-02-24T05:47:57.919Z,81.98
2019-02-24T05:48:57.879Z,81.56
2019-02-24T05:49:57.967Z,81.67
2019-02-24T05:50:57.850Z,81.67
2019-02-24T05:51:57.932Z,81.24
2019-02-24T05:52:57.852Z,80.97
2019-02-24T05:53:57.944Z,81.60
2019-02-24T05:54:57.796Z,81.81
2019-02-24T05:55:57.865Z,82.23
2019-02-24T05:56:57.793Z,83.04
2019-02-24T05:57:57.797Z,82.76
2019-02-24T05:58:57.755Z,83.36
2019-02-24T05:59:57.837Z,82.20
2019-02-24T06:00:57.736Z,82.30
2019-02-24T06:01:57.739Z,82.30
2019-02-24T06:02:57.739Z,81.77
2019-02-24T06:03:57.701Z,81.24
2019-02-24T06:04:57.778Z,81.18
2019-02-24T06:05:57.700Z,81.67
2019-02-24T06:06:57.701Z,80.40
2019-02-24T06:07:57.662Z,79.88
2019-02-24T06:08:57.744Z,79.56
2019-02-24T06:09:57.652Z,78.92
2019-02-24T06:10:57.686Z,78.82
2019-02-24T06:11:57.645Z,78.72
2019-02-24T06:12:57.615Z,78.92
2019-02-24T06:13:57.604Z,78.92
2019-02-24T06:14:57.665Z,78.82
2019-02-24T06:15:57.578Z,79.14
2019-02-24T06:16:57.639Z,79.24
2019-02-24T06:17:57.557Z,80.08
2019-02-24T06:18:58.649Z,80.30
2019-02-24T06:19:57.530Z,79.98
2019-02-24T06:20:57.559Z,79.88
2019-02-24T06:21:57.536Z,80.19
2019-02-24T06:22:57.500Z,80.30
2019-02-24T06:23:57.567Z,80.62
2019-02-24T06:24:57.500Z,80.62
2019-02-24T06:25:57.510Z,80.62
2019-02-24T06:26:57.475Z,80.93
2019-02-24T06:27:57.461Z,80.72
2019-02-24T06:28:57.436Z,80.82
2019-02-24T06:30:04.455Z,81.35
2019-02-24T06:30:58.406Z,81.10
2019-02-24T06:31:57.450Z,81.32
2019-02-24T06:32:57.387Z,81.10
2019-02-24T06:33:57.394Z,80.90
2019-02-24T06:34:57.410Z,81.21
2019-02-24T06:35:57.362Z,81.21
2019-02-24T06:36:57.389Z,80.79
2019-02-24T06:37:57.329Z,80.68
2019-02-24T06:38:57.325Z,80.90
2019-02-24T06:39:58.392Z,79.94
2019-02-24T06:40:57.304Z,79.14
2019-02-24T06:41:57.328Z,79.10
2019-02-24T06:42:57.284Z,78.58
2019-02-24T06:43:57.281Z,78.89
2019-02-24T06:44:57.284Z,79.94
2019-02-24T06:45:57.254Z,80.36
2019-02-24T06:46:58.337Z,81.10
2019-02-24T06:47:57.225Z,81.63
2019-02-24T06:48:57.230Z,81.21
2019-02-24T06:49:57.210Z,80.68
2019-02-24T06:50:57.300Z,80.90
2019-02-24T06:51:57.203Z,80.58
2019-02-24T06:52:57.229Z,80.58
2019-02-24T06:53:57.162Z,81.10
2019-02-24T06:54:57.171Z,80.58
2019-02-24T06:55:57.141Z,78.64
2019-02-24T06:56:57.274Z,78.68
2019-02-24T06:57:57.128Z,77.52
2019-02-24T06:58:57.144Z,77.42
2019-02-24T06:59:57.111Z,76.96
2019-02-24T07:00:57.175Z,77.10
2019-02-24T07:01:57.088Z,77.70
2019-02-24T07:02:57.155Z,78.86
2019-02-24T07:03:57.060Z,78.54
2019-02-24T07:04:57.038Z,78.86
2019-02-24T07:05:57.031Z,79.28
2019-02-24T07:06:57.088Z,79.49
2019-02-24T07:07:57.020Z,79.38
2019-02-24T07:08:58.042Z,79.49
2019-02-24T07:09:56.976Z,79.49
2019-02-24T07:10:57.053Z,79.60
2019-02-24T07:11:56.961Z,80.02
2019-02-24T07:12:58.082Z,80.02
2019-02-24T07:13:56.943Z,79.60
2019-02-24T07:14:56.933Z,77.91
2019-02-24T07:15:56.935Z,78.54
2019-02-24T07:16:57.989Z,78.64
2019-02-24T07:17:56.917Z,78.64
2019-02-24T07:19:03.458Z,78.54
2019-02-24T07:19:56.866Z,78.75
2019-02-24T07:20:56.872Z,78.02
2019-02-24T07:21:58.950Z,77.70
2019-02-24T07:22:56.867Z,77.28
2019-02-24T07:23:58.887Z,76.82
2019-02-24T07:24:56.837Z,76.33
2019-02-24T07:25:56.828Z,76.19
2019-02-24T07:26:56.820Z,76.19
2019-02-24T07:27:56.861Z,76.82
2019-02-24T07:28:56.768Z,76.29
2019-02-24T07:29:56.850Z,77.03
2019-02-24T07:30:56.819Z,77.45
2019-02-24T07:31:56.769Z,77.03
2019-02-24T07:32:56.805Z,77.00
2019-02-24T07:33:56.737Z,77.31
2019-02-24T07:34:56.787Z,76.05
2019-02-24T07:35:56.759Z,75.52
2019-02-24T07:36:56.697Z,75.95
2019-02-24T07:37:57.792Z,76.15
2019-02-24T07:38:56.682Z,75.95
2019-02-24T07:39:56.724Z,75.42
2019-02-24T07:40:56.652Z,74.89
2019-02-24T07:41:56.663Z,73.63
2019-02-24T07:42:56.643Z,73.52
2019-02-24T07:43:56.704Z,73.32
2019-02-24T07:44:56.595Z,73.21
2019-02-24T07:45:56.633Z,72.37
2019-02-24T07:46:56.584Z,72.02
2019-02-24T07:47:56.616Z,71.39
2019-02-24T07:48:56.565Z,72.13
2019-02-24T07:49:56.616Z,70.97
2019-02-24T07:50:56.559Z,70.34
2019-02-24T07:51:56.526Z,70.02
2019-02-24T07:52:56.547Z,69.26
2019-02-24T07:53:56.589Z,68.62
2019-02-24T07:54:56.509Z,68.80
2019-02-24T07:55:56.508Z,68.88
2019-02-24T07:56:57.509Z,68.46
2019-02-24T07:57:56.489Z,67.69
2019-02-24T07:58:56.539Z,68.11
2019-02-24T07:59:56.431Z,66.82
2019-02-24T08:00:56.460Z,66.47
2019-02-24T08:01:56.435Z,65.01
2019-02-24T08:02:58.491Z,65.08
2019-02-24T08:03:56.412Z,65.79
2019-02-24T08:04:56.431Z,64.11
2019-02-24T08:05:56.392Z,61.05
2019-02-24T08:06:56.457Z,59.79
2019-02-24T08:07:56.382Z,59.76
2019-02-24T08:09:02.939Z,61.22
2019-02-24T08:09:56.339Z,62.07
2019-02-24T08:10:56.328Z,62.56
2019-02-24T08:11:56.310Z,59.74
2019-02-24T08:12:56.309Z,58.97
2019-02-24T08:13:56.330Z,58.56
2019-02-24T08:14:56.284Z,59.70
2019-02-24T08:15:57.285Z,58.14
2019-02-24T08:16:56.257Z,55.83
2019-02-24T08:17:56.257Z,57.20
2019-02-24T08:18:56.238Z,57.56
2019-02-24T08:19:56.346Z,58.81
2019-02-24T08:20:56.308Z,56.62
2019-02-24T08:21:56.278Z,57.56
2019-02-24T08:22:56.288Z,57.98
2019-02-24T08:23:56.197Z,55.79
2019-02-24T08:24:56.278Z,57.87
2019-02-24T08:25:56.158Z,58.09
2019-02-24T08:26:56.220Z,57.95
2019-02-24T08:27:57.269Z,58.89
2019-02-24T08:28:56.121Z,58.01
2019-02-24T08:29:56.230Z,58.29
2019-02-24T08:30:56.121Z,56.00
2019-02-24T08:31:56.165Z,55.90
2019-02-24T08:32:56.171Z,54.85
2019-02-24T08:33:56.082Z,55.66
2019-02-24T08:34:56.173Z,56.00
2019-02-24T08:35:56.058Z,55.90
2019-02-24T08:36:56.097Z,56.10
2019-02-24T08:37:56.053Z,56.70
2019-02-24T08:38:56.044Z,57.54
2019-02-24T08:39:56.015Z,55.55
2019-02-24T08:40:56.075Z,55.35
2019-02-24T08:41:56.003Z,55.63
2019-02-24T08:42:56.055Z,56.26
2019-02-24T08:43:55.976Z,56.02
2019-02-24T08:44:56.966Z,55.38
2019-02-24T08:45:55.941Z,54.62
2019-02-24T08:46:55.997Z,54.57
2019-02-24T08:47:55.947Z,53.61
2019-02-24T08:48:55.907Z,53.17
2019-02-24T08:49:55.997Z,52.65
2019-02-24T08:50:55.899Z,52.62
2019-02-24T08:51:55.919Z,50.34
2019-02-24T08:52:55.880Z,50.13
2019-02-24T08:53:55.874Z,48.99
2019-02-24T08:54:55.930Z,49.10
2019-02-24T08:55:55.830Z,49.18
2019-02-24T08:56:55.861Z,48.04
2019-02-24T08:57:55.862Z,46.80
2019-02-24T08:58:55.801Z,47.25
2019-02-24T09:00:02.522Z,46.36
2019-02-24T09:00:55.771Z,43.79
2019-02-24T09:01:55.848Z,43.73
2019-02-24T09:02:55.835Z,41.63
2019-02-24T09:03:55.743Z,39.01
2019-02-24T09:04:55.734Z,39.12
2019-02-24T09:05:56.795Z,39.77
2019-02-24T09:06:55.724Z,40.96
2019-02-24T09:08:02.566Z,40.38
2019-02-24T09:08:55.906Z,43.85
2019-02-24T09:09:55.689Z,44.38
2019-02-24T09:10:56.738Z,46.79
2019-02-24T09:11:55.663Z,46.81
2019-02-24T09:12:55.743Z,48.69
2019-02-24T09:13:55.769Z,50.82
2019-02-24T09:14:55.631Z,51.05
2019-02-24T09:15:55.656Z,53.02
2019-02-24T09:16:55.616Z,54.27
2019-02-24T09:17:55.680Z,53.00
2019-02-24T09:18:55.606Z,48.95
2019-02-24T09:19:55.629Z,47.11
2019-02-24T09:20:55.564Z,44.47
2019-02-24T09:21:56.576Z,44.62
2019-02-24T09:22:55.539Z,46.00
2019-02-24T09:23:56.558Z,47.56
2019-02-24T09:24:55.530Z,48.75
2019-02-24T09:25:56.550Z,48.97
2019-02-24T09:26:55.508Z,48.90
2019-02-24T09:27:57.608Z,50.49
2019-02-24T09:28:55.504Z,50.74
2019-02-24T09:29:55.471Z,50.98
2019-02-24T09:31:00.788Z,48.60
2019-02-24T09:31:55.449Z,50.27
2019-02-24T09:32:55.601Z,51.65
2019-02-24T09:33:55.433Z,53.33
2019-02-24T09:34:55.417Z,54.99
2019-02-24T09:35:55.503Z,55.33
2019-02-24T09:36:55.401Z,55.72
2019-02-24T09:37:55.542Z,56.86
2019-02-24T09:38:55.388Z,56.45
2019-02-24T09:39:55.357Z,55.43
2019-02-24T09:40:55.462Z,57.38
2019-02-24T09:41:55.327Z,58.86
2019-02-24T09:42:55.489Z,59.17
2019-02-24T09:43:55.359Z,59.17
2019-02-24T09:44:55.299Z,60.72
2019-02-24T09:45:56.409Z,60.93
2019-02-24T09:46:55.281Z,60.83
2019-02-24T09:47:56.450Z,61.35
2019-02-24T09:48:55.255Z,60.93
2019-02-24T09:49:55.282Z,61.04
2019-02-24T09:50:55.331Z,60.83
2019-02-24T09:51:55.223Z,59.38
2019-02-24T09:52:56.403Z,59.27
2019-02-24T09:53:55.214Z,58.44
2019-02-24T09:54:55.222Z,58.34
2019-02-24T09:55:55.156Z,59.61
2019-02-24T09:56:55.344Z,59.30
2019-02-24T09:57:55.156Z,54.34
2019-02-24T09:58:55.325Z,51.20
2019-02-24T09:59:55.138Z,50.37
2019-02-24T10:00:55.216Z,47.64
2019-02-24T10:01:55.118Z,44.64
2019-02-24T10:02:55.248Z,47.44
2019-02-24T10:03:55.107Z,46.59
2019-02-24T10:04:55.187Z,46.28
2019-02-24T10:05:55.078Z,46.59
2019-02-24T10:06:55.214Z,46.80
2019-02-24T10:07:55.053Z,45.76
2019-02-24T10:08:55.209Z,45.01
2019-02-24T10:09:55.029Z,44.38
2019-02-24T10:10:55.015Z,42.72
2019-02-24T10:11:57.130Z,43.23
2019-02-24T10:12:54.998Z,44.26
2019-02-24T10:13:58.612Z,44.37
2019-02-24T10:14:54.961Z,43.52
2019-02-24T10:15:54.950Z,45.90
2019-02-24T10:16:54.953Z,44.12
2019-02-24T10:18:03.064Z,44.22
2019-02-24T10:18:54.933Z,43.52
2019-02-24T10:20:02.573Z,42.46
2019-02-24T10:20:55.065Z,40.08
2019-02-24T10:21:54.882Z,41.41
2019-02-24T10:22:56.022Z,40.78
2019-02-24T10:23:54.875Z,40.26
2019-02-24T10:24:54.935Z,40.58
2019-02-24T10:25:54.848Z,40.77
2019-02-24T10:26:55.995Z,40.35
2019-02-24T10:27:54.816Z,39.30
2019-02-24T10:29:00.066Z,38.68
2019-02-24T10:29:54.806Z,39.49
2019-02-24T10:30:54.948Z,38.66
2019-02-24T10:31:54.789Z,39.59
2019-02-24T10:32:54.878Z,38.87
2019-02-24T10:33:54.779Z,38.35
2019-02-24T10:34:54.810Z,39.26
2019-02-24T10:35:54.733Z,38.45
2019-02-24T10:36:54.731Z,38.54
2019-02-24T10:37:54.726Z,39.06
2019-02-24T10:38:55.871Z,39.14
2019-02-24T10:39:54.692Z,38.42
2019-02-24T10:40:54.826Z,38.60
2019-02-24T10:41:54.803Z,38.71
2019-02-24T10:42:54.707Z,39.23
2019-02-24T10:43:54.784Z,37.76
2019-02-24T10:44:54.635Z,36.32
2019-02-24T10:45:54.778Z,36.42
2019-02-24T10:46:54.606Z,37.35
2019-02-24T10:47:54.706Z,38.28
2019-02-24T10:49:03.070Z,37.87
2019-02-24T10:49:55.577Z,36.63
2019-02-24T10:50:54.719Z,37.76
2019-02-24T10:51:54.557Z,36.82
2019-02-24T10:52:54.548Z,36.71
2019-02-24T10:53:54.660Z,37.13
2019-02-24T10:54:54.528Z,36.29
2019-02-24T10:55:54.649Z,35.25
2019-02-24T10:56:54.499Z,34.21
2019-02-24T10:57:54.490Z,34.70
2019-02-24T10:58:54.602Z,35.43
2019-02-24T10:59:54.471Z,35.53
2019-02-24T11:00:56.531Z,34.61
2019-02-24T11:01:54.462Z,35.21
2019-02-24T11:02:54.431Z,33.76
2019-02-24T11:03:54.432Z,33.66
2019-02-24T11:04:56.503Z,33.97
2019-02-24T11:05:54.413Z,33.13
2019-02-24T11:06:54.492Z,32.72
2019-02-24T11:07:54.394Z,32.10
2019-02-24T11:08:59.587Z,33.23
2019-02-24T11:09:54.345Z,33.42
2019-02-24T11:10:55.485Z,34.35
2019-02-24T11:11:54.326Z,33.53
2019-02-24T11:13:01.057Z,33.42
2019-02-24T11:13:54.306Z,33.01
2019-02-24T11:14:58.577Z,32.82
2019-02-24T11:15:54.277Z,32.81
2019-02-24T11:17:02.047Z,32.29
2019-02-24T11:17:54.260Z,33.22
2019-02-24T11:18:54.249Z,32.40
2019-02-24T11:19:54.264Z,32.60
2019-02-24T11:20:54.340Z,34.56
2019-02-24T11:21:54.213Z,33.00
2019-02-24T11:22:54.281Z,32.28
2019-02-24T11:23:54.351Z,31.56
2019-02-24T11:24:54.292Z,32.57
2019-02-24T11:25:55.312Z,31.95
2019-02-24T11:26:54.153Z,31.94
2019-02-24T11:27:54.224Z,30.30
2019-02-24T11:28:54.144Z,27.61
2019-02-24T11:29:54.214Z,28.64
2019-02-24T11:30:54.145Z,28.95
2019-02-24T11:31:54.195Z,28.63
2019-02-24T11:32:54.096Z,28.42
2019-02-24T11:33:54.236Z,29.03
2019-02-24T11:34:54.078Z,28.94
2019-02-24T11:35:54.167Z,28.92
2019-02-24T11:36:54.059Z,27.81
2019-02-24T11:37:54.108Z,28.52
2019-02-24T11:38:54.031Z,27.48
2019-02-24T11:39:54.039Z,27.48
2019-02-24T11:40:54.009Z,27.18
2019-02-24T11:41:54.082Z,27.08
2019-02-24T11:42:53.990Z,28.31
2019-02-24T11:43:54.110Z,28.92
2019-02-24T11:44:54.124Z,28.41
2019-02-24T11:45:53.953Z,26.46
2019-02-24T11:46:54.013Z,26.17
2019-02-24T11:47:53.932Z,25.96
2019-02-24T11:48:54.052Z,23.79
2019-02-24T11:49:53.923Z,21.63
2019-02-24T11:50:55.015Z,22.75
2019-02-24T11:51:53.884Z,16.69
2019-02-24T11:52:54.025Z,17.71
2019-02-24T11:53:53.867Z,17.40
2019-02-24T11:54:54.006Z,19.45
2019-02-24T11:55:53.831Z,16.78
2019-02-24T11:56:53.893Z,18.22
2019-02-24T11:57:53.807Z,17.51
2019-02-24T11:58:53.927Z,17.82
2019-02-24T11:59:53.818Z,18.84
2019-02-24T12:00:53.768Z,19.76
2019-02-24T12:01:53.755Z,20.48
2019-02-24T12:02:53.899Z,18.95
2019-02-24T12:03:53.743Z,20.70
2019-02-24T12:04:53.877Z,18.45
2019-02-24T12:05:53.710Z,17.62
2019-02-24T12:06:53.771Z,17.83
2019-02-24T12:07:53.689Z,19.16
2019-02-24T12:08:53.810Z,16.91
2019-02-24T12:09:53.683Z,13.21
2019-02-24T12:10:53.743Z,13.42
2019-02-24T12:11:53.643Z,13.62
2019-02-24T12:12:53.784Z,12.81
2019-02-24T12:13:53.635Z,11.98
2019-02-24T12:14:53.765Z,12.08
2019-02-24T12:15:54.882Z,11.98
2019-02-24T12:16:53.588Z,11.36
2019-02-24T12:17:53.726Z,10.65
2019-02-24T12:18:53.567Z,10.24
2019-02-24T12:19:54.728Z,11.26
2019-02-24T12:20:53.568Z,11.77
2019-02-24T12:21:53.538Z,10.34
2019-02-24T12:22:53.659Z,10.03
2019-02-24T12:23:53.519Z,10.54
2019-02-24T12:24:53.650Z,12.28
2019-02-24T12:25:53.501Z,12.38
2019-02-24T12:26:53.491Z,11.36
2019-02-24T12:27:53.471Z,10.54
2019-02-24T12:28:53.572Z,10.94
2019-02-24T12:29:53.462Z,11.15
2019-02-24T12:30:53.515Z,11.96
2019-02-24T12:31:56.622Z,11.96
2019-02-24T12:32:53.427Z,13.09
2019-02-24T12:33:53.514Z,11.15
2019-02-24T12:34:53.415Z,13.29
2019-02-24T12:35:54.475Z,11.35
2019-02-24T12:36:53.371Z,13.19
2019-02-24T12:37:53.366Z,14.52
2019-02-24T12:38:54.476Z,11.05
2019-02-24T12:39:53.357Z,12.68
2019-02-24T12:41:00.036Z,10.85
2019-02-24T12:41:53.314Z,11.05
2019-02-24T12:42:54.594Z,10.33
2019-02-24T12:43:53.282Z,11.56
2019-02-24T12:44:57.604Z,10.85
2019-02-24T12:45:53.265Z,10.64
2019-02-24T12:46:53.395Z,9.00
2019-02-24T12:47:53.250Z,9.41
2019-02-24T12:48:53.325Z,11.25
2019-02-24T12:49:53.238Z,11.25
2019-02-24T12:50:53.258Z,10.63
2019-02-24T12:51:53.197Z,10.74